sensor_id;sensor_type;location;lat;lon;timestamp;temperature;humidity
30174;DHT22;16985;50.814;8.530;2023-11-21T00:00:07;7.10;99.90
30174;DHT22;16985;50.814;8.530;2023-11-21T00:02:41;7.10;99.90
30174;DHT22;16985;50.814;8.530;2023-11-21T00:05:11;7.00;99.90
30174;DHT22;16985;50.814;8.530;2023-11-21T00:07:40;7.00;99.90
30174;DHT22;16985;50.814;8.530;2023-11-21T00:10:12;7.20;99.90
30174;DHT22;16985;50.814;8.530;2023-11-21T00:12:42;8.20;99.90
30174;DHT22;16985;50.814;8.530;2023-11-21T00:15:09;5.70;99.90
30174;DHT22;16985;50.814;8.530;2023-11-21T00:17:38;7.00;99.90
30174;DHT22;16985;50.814;8.530;2023-11-21T00:20:10;7.00;99.90
30174;DHT22;16985;50.814;8.530;2023-11-21T00:22:38;7.10;99.90
30174;DHT22;16985;50.814;8.530;2023-11-21T00:25:07;7.10;99.90
30174;DHT22;16985;50.814;8.530;2023-11-21T00:27:35;7.00;99.90
30174;DHT22;16985;50.814;8.530;2023-11-21T00:30:02;7.00;99.90
30174;DHT22;16985;50.814;8.530;2023-11-21T00:32:30;7.10;99.90
30174;DHT22;16985;50.814;8.530;2023-11-21T00:34:57;7.10;99.90
30174;DHT22;16985;50.814;8.530;2023-11-21T00:37:23;8.00;99.90
30174;DHT22;16985;50.814;8.530;2023-11-21T00:39:50;7.10;99.90
30174;DHT22;16985;50.814;8.530;2023-11-21T00:42:16;7.10;99.90
30174;DHT22;16985;50.814;8.530;2023-11-21T00:44:42;7.10;99.90
30174;DHT22;16985;50.814;8.530;2023-11-21T00:47:08;7.00;99.90
30174;DHT22;16985;50.814;8.530;2023-11-21T00:49:34;7.10;99.90
30174;DHT22;16985;50.814;8.530;2023-11-21T00:52:00;7.00;99.90
30174;DHT22;16985;50.814;8.530;2023-11-21T00:54:27;7.10;99.90
30174;DHT22;16985;50.814;8.530;2023-11-21T00:56:53;7.00;99.90
30174;DHT22;16985;50.814;8.530;2023-11-21T00:59:19;7.00;99.90
30174;DHT22;16985;50.814;8.530;2023-11-21T01:01:46;7.00;99.90
30174;DHT22;16985;50.814;8.530;2023-11-21T01:04:12;7.30;99.90
30174;DHT22;16985;50.814;8.530;2023-11-21T01:06:39;7.00;99.90
30174;DHT22;16985;50.814;8.530;2023-11-21T01:09:04;7.00;99.90
30174;DHT22;16985;50.814;8.530;2023-11-21T01:11:35;7.00;99.90
30174;DHT22;16985;50.814;8.530;2023-11-21T01:14:03;7.00;99.90
30174;DHT22;16985;50.814;8.530;2023-11-21T01:16:30;7.00;99.90
30174;DHT22;16985;50.814;8.530;2023-11-21T01:18:59;7.00;99.90
30174;DHT22;16985;50.814;8.530;2023-11-21T01:21:25;6.90;99.90
30174;DHT22;16985;50.814;8.530;2023-11-21T01:23:51;6.90;99.90
30174;DHT22;16985;50.814;8.530;2023-11-21T01:26:17;6.90;99.90
30174;DHT22;16985;50.814;8.530;2023-11-21T01:28:43;6.90;99.90
30174;DHT22;16985;50.814;8.530;2023-11-21T01:31:08;6.90;99.90
30174;DHT22;16985;50.814;8.530;2023-11-21T01:33:34;7.00;99.90
30174;DHT22;16985;50.814;8.530;2023-11-21T01:36:00;6.90;99.90
30174;DHT22;16985;50.814;8.530;2023-11-21T01:38:26;6.90;99.90
30174;DHT22;16985;50.814;8.530;2023-11-21T01:40:52;6.90;99.90
30174;DHT22;16985;50.814;8.530;2023-11-21T01:43:18;6.90;99.90
30174;DHT22;16985;50.814;8.530;2023-11-21T01:45:44;6.90;99.90
30174;DHT22;16985;50.814;8.530;2023-11-21T01:48:12;6.90;99.90
30174;DHT22;16985;50.814;8.530;2023-11-21T01:50:39;6.90;99.90
30174;DHT22;16985;50.814;8.530;2023-11-21T01:53:05;6.90;99.90
30174;DHT22;16985;50.814;8.530;2023-11-21T01:55:33;7.00;99.90
30174;DHT22;16985;50.814;8.530;2023-11-21T01:57:59;7.00;99.90
30174;DHT22;16985;50.814;8.530;2023-11-21T02:00:26;6.90;99.90
30174;DHT22;16985;50.814;8.530;2023-11-21T02:02:52;6.90;99.90
30174;DHT22;16985;50.814;8.530;2023-11-21T02:05:19;6.90;99.90
30174;DHT22;16985;50.814;8.530;2023-11-21T02:07:47;7.00;99.90
30174;DHT22;16985;50.814;8.530;2023-11-21T02:10:14;7.00;99.90
30174;DHT22;16985;50.814;8.530;2023-11-21T02:12:42;6.90;99.90
30174;DHT22;16985;50.814;8.530;2023-11-21T02:15:12;6.90;99.90
30174;DHT22;16985;50.814;8.530;2023-11-21T02:17:46;7.00;99.90
30174;DHT22;16985;50.814;8.530;2023-11-21T02:20:20;7.00;99.90
30174;DHT22;16985;50.814;8.530;2023-11-21T02:22:52;7.00;99.90
30174;DHT22;16985;50.814;8.530;2023-11-21T02:25:30;7.00;99.90
30174;DHT22;16985;50.814;8.530;2023-11-21T02:27:59;7.00;99.90
30174;DHT22;16985;50.814;8.530;2023-11-21T02:30:26;7.00;99.90
30174;DHT22;16985;50.814;8.530;2023-11-21T02:32:59;7.00;99.90
30174;DHT22;16985;50.814;8.530;2023-11-21T02:35:26;7.00;99.90
30174;DHT22;16985;50.814;8.530;2023-11-21T02:37:52;7.00;99.90
30174;DHT22;16985;50.814;8.530;2023-11-21T02:40:19;7.00;99.90
30174;DHT22;16985;50.814;8.530;2023-11-21T02:42:50;7.00;99.90
30174;DHT22;16985;50.814;8.530;2023-11-21T02:45:18;7.00;99.90
30174;DHT22;16985;50.814;8.530;2023-11-21T02:47:46;7.00;99.90
30174;DHT22;16985;50.814;8.530;2023-11-21T02:50:13;7.00;99.90
30174;DHT22;16985;50.814;8.530;2023-11-21T02:52:39;7.00;99.90
30174;DHT22;16985;50.814;8.530;2023-11-21T02:55:06;7.00;99.90
30174;DHT22;16985;50.814;8.530;2023-11-21T02:57:35;7.00;99.90
30174;DHT22;16985;50.814;8.530;2023-11-21T03:00:01;7.00;99.90
30174;DHT22;16985;50.814;8.530;2023-11-21T03:02:28;7.00;99.90
30174;DHT22;16985;50.814;8.530;2023-11-21T03:04:53;7.00;99.90
30174;DHT22;16985;50.814;8.530;2023-11-21T03:07:19;7.10;99.90
30174;DHT22;16985;50.814;8.530;2023-11-21T03:09:45;7.00;99.90
30174;DHT22;16985;50.814;8.530;2023-11-21T03:12:11;7.00;99.90
30174;DHT22;16985;50.814;8.530;2023-11-21T03:14:41;7.00;99.90
30174;DHT22;16985;50.814;8.530;2023-11-21T03:17:07;7.00;99.90
30174;DHT22;16985;50.814;8.530;2023-11-21T03:19:33;7.00;99.90
30174;DHT22;16985;50.814;8.530;2023-11-21T03:21:58;7.00;99.90
30174;DHT22;16985;50.814;8.530;2023-11-21T03:24:25;7.00;99.90
30174;DHT22;16985;50.814;8.530;2023-11-21T03:26:51;7.00;99.90
30174;DHT22;16985;50.814;8.530;2023-11-21T03:29:18;7.00;99.90
30174;DHT22;16985;50.814;8.530;2023-11-21T03:31:44;7.00;99.90
30174;DHT22;16985;50.814;8.530;2023-11-21T03:34:23;7.00;99.90
30174;DHT22;16985;50.814;8.530;2023-11-21T03:36:51;7.00;99.90
30174;DHT22;16985;50.814;8.530;2023-11-21T03:39:22;7.00;99.90
30174;DHT22;16985;50.814;8.530;2023-11-21T03:41:48;7.00;99.90
30174;DHT22;16985;50.814;8.530;2023-11-21T03:44:15;6.90;99.90
30174;DHT22;16985;50.814;8.530;2023-11-21T03:46:41;7.00;99.90
30174;DHT22;16985;50.814;8.530;2023-11-21T03:49:09;7.00;99.90
30174;DHT22;16985;50.814;8.530;2023-11-21T03:51:36;7.00;99.90
30174;DHT22;16985;50.814;8.530;2023-11-21T03:54:03;7.00;99.90
30174;DHT22;16985;50.814;8.530;2023-11-21T03:56:29;7.00;99.90
30174;DHT22;16985;50.814;8.530;2023-11-21T03:58:55;7.00;99.90
30174;DHT22;16985;50.814;8.530;2023-11-21T04:01:22;7.00;99.90
30174;DHT22;16985;50.814;8.530;2023-11-21T04:03:49;7.00;99.90
30174;DHT22;16985;50.814;8.530;2023-11-21T04:06:15;7.00;99.90
30174;DHT22;16985;50.814;8.530;2023-11-21T04:08:43;7.00;99.90
30174;DHT22;16985;50.814;8.530;2023-11-21T04:11:10;6.90;99.90
30174;DHT22;16985;50.814;8.530;2023-11-21T04:13:39;6.90;99.90
30174;DHT22;16985;50.814;8.530;2023-11-21T04:16:07;7.00;99.90
30174;DHT22;16985;50.814;8.530;2023-11-21T04:18:35;7.00;99.90
30174;DHT22;16985;50.814;8.530;2023-11-21T04:21:01;7.00;99.90
30174;DHT22;16985;50.814;8.530;2023-11-21T04:23:29;6.90;99.90
30174;DHT22;16985;50.814;8.530;2023-11-21T04:25:57;6.90;99.90
30174;DHT22;16985;50.814;8.530;2023-11-21T04:28:23;6.90;99.90
30174;DHT22;16985;50.814;8.530;2023-11-21T04:30:52;6.90;99.90
30174;DHT22;16985;50.814;8.530;2023-11-21T04:33:18;6.90;99.90
30174;DHT22;16985;50.814;8.530;2023-11-21T04:35:44;6.90;99.90
30174;DHT22;16985;50.814;8.530;2023-11-21T04:38:10;6.90;99.90
30174;DHT22;16985;50.814;8.530;2023-11-21T04:40:36;6.90;99.90
30174;DHT22;16985;50.814;8.530;2023-11-21T04:43:02;6.90;99.90
30174;DHT22;16985;50.814;8.530;2023-11-21T04:45:29;6.90;99.90
30174;DHT22;16985;50.814;8.530;2023-11-21T04:47:55;6.90;99.90
30174;DHT22;16985;50.814;8.530;2023-11-21T04:50:21;6.90;99.90
30174;DHT22;16985;50.814;8.530;2023-11-21T04:52:47;6.90;99.90
30174;DHT22;16985;50.814;8.530;2023-11-21T04:55:13;6.90;99.90
30174;DHT22;16985;50.814;8.530;2023-11-21T04:57:41;6.90;99.90
30174;DHT22;16985;50.814;8.530;2023-11-21T05:00:09;6.90;99.90
30174;DHT22;16985;50.814;8.530;2023-11-21T05:02:35;6.90;99.90
30174;DHT22;16985;50.814;8.530;2023-11-21T05:05:01;6.90;99.90
30174;DHT22;16985;50.814;8.530;2023-11-21T05:07:28;6.90;99.90
30174;DHT22;16985;50.814;8.530;2023-11-21T05:09:55;6.90;99.90
30174;DHT22;16985;50.814;8.530;2023-11-21T05:12:22;6.90;99.90
30174;DHT22;16985;50.814;8.530;2023-11-21T05:14:49;6.30;99.90
30174;DHT22;16985;50.814;8.530;2023-11-21T05:17:15;6.90;99.90
30174;DHT22;16985;50.814;8.530;2023-11-21T05:19:42;6.90;99.90
30174;DHT22;16985;50.814;8.530;2023-11-21T05:22:08;6.90;99.90
30174;DHT22;16985;50.814;8.530;2023-11-21T05:24:34;6.90;99.90
30174;DHT22;16985;50.814;8.530;2023-11-21T05:27:00;6.90;99.90
30174;DHT22;16985;50.814;8.530;2023-11-21T05:29:26;6.90;99.90
30174;DHT22;16985;50.814;8.530;2023-11-21T05:31:52;6.90;99.90
30174;DHT22;16985;50.814;8.530;2023-11-21T05:34:18;6.90;99.90
30174;DHT22;16985;50.814;8.530;2023-11-21T05:36:46;6.90;99.90
30174;DHT22;16985;50.814;8.530;2023-11-21T05:39:13;6.90;99.90
30174;DHT22;16985;50.814;8.530;2023-11-21T05:41:39;6.90;99.90
30174;DHT22;16985;50.814;8.530;2023-11-21T05:44:05;6.90;99.90
30174;DHT22;16985;50.814;8.530;2023-11-21T05:46:31;6.90;99.90
30174;DHT22;16985;50.814;8.530;2023-11-21T05:48:57;6.90;99.90
30174;DHT22;16985;50.814;8.530;2023-11-21T05:51:23;6.90;99.90
30174;DHT22;16985;50.814;8.530;2023-11-21T05:53:49;6.90;99.90
30174;DHT22;16985;50.814;8.530;2023-11-21T05:56:15;6.90;99.90
30174;DHT22;16985;50.814;8.530;2023-11-21T05:58:41;6.90;99.90
30174;DHT22;16985;50.814;8.530;2023-11-21T06:01:07;6.80;99.90
30174;DHT22;16985;50.814;8.530;2023-11-21T06:03:34;5.90;99.90
30174;DHT22;16985;50.814;8.530;2023-11-21T06:06:00;6.90;99.90
30174;DHT22;16985;50.814;8.530;2023-11-21T06:08:26;6.80;99.90
30174;DHT22;16985;50.814;8.530;2023-11-21T06:10:52;6.80;99.90
30174;DHT22;16985;50.814;8.530;2023-11-21T06:13:18;6.80;99.90
30174;DHT22;16985;50.814;8.530;2023-11-21T06:15:50;6.80;99.90
30174;DHT22;16985;50.814;8.530;2023-11-21T06:18:16;6.80;99.90
30174;DHT22;16985;50.814;8.530;2023-11-21T06:20:45;6.80;99.90
30174;DHT22;16985;50.814;8.530;2023-11-21T06:23:11;6.80;99.90
30174;DHT22;16985;50.814;8.530;2023-11-21T06:25:37;6.80;99.90
30174;DHT22;16985;50.814;8.530;2023-11-21T06:28:04;6.80;99.90
30174;DHT22;16985;50.814;8.530;2023-11-21T06:30:30;6.70;99.90
30174;DHT22;16985;50.814;8.530;2023-11-21T06:32:56;6.70;99.90
30174;DHT22;16985;50.814;8.530;2023-11-21T06:35:22;6.70;99.90
30174;DHT22;16985;50.814;8.530;2023-11-21T06:37:48;6.70;99.90
30174;DHT22;16985;50.814;8.530;2023-11-21T06:40:14;6.70;99.90
30174;DHT22;16985;50.814;8.530;2023-11-21T06:42:41;6.70;99.90
30174;DHT22;16985;50.814;8.530;2023-11-21T06:45:07;6.80;99.90
30174;DHT22;16985;50.814;8.530;2023-11-21T06:47:37;6.70;99.90
30174;DHT22;16985;50.814;8.530;2023-11-21T06:50:04;6.70;99.90
30174;DHT22;16985;50.814;8.530;2023-11-21T06:52:30;6.70;99.90
30174;DHT22;16985;50.814;8.530;2023-11-21T06:54:56;6.70;99.90
30174;DHT22;16985;50.814;8.530;2023-11-21T06:57:25;6.80;99.90
30174;DHT22;16985;50.814;8.530;2023-11-21T06:59:51;6.70;99.90
30174;DHT22;16985;50.814;8.530;2023-11-21T07:02:17;6.70;99.90
30174;DHT22;16985;50.814;8.530;2023-11-21T07:04:46;6.70;99.90
30174;DHT22;16985;50.814;8.530;2023-11-21T07:07:12;6.70;99.90
30174;DHT22;16985;50.814;8.530;2023-11-21T07:09:39;6.70;99.90
30174;DHT22;16985;50.814;8.530;2023-11-21T07:12:05;7.80;99.90
30174;DHT22;16985;50.814;8.530;2023-11-21T07:14:34;6.70;99.90
30174;DHT22;16985;50.814;8.530;2023-11-21T07:17:00;6.70;99.90
30174;DHT22;16985;50.814;8.530;2023-11-21T07:19:26;6.70;99.90
30174;DHT22;16985;50.814;8.530;2023-11-21T07:21:52;6.70;99.90
30174;DHT22;16985;50.814;8.530;2023-11-21T07:24:18;6.70;99.90
30174;DHT22;16985;50.814;8.530;2023-11-21T07:26:44;6.70;99.90
30174;DHT22;16985;50.814;8.530;2023-11-21T07:29:09;6.70;99.90
30174;DHT22;16985;50.814;8.530;2023-11-21T07:31:37;6.70;99.90
30174;DHT22;16985;50.814;8.530;2023-11-21T07:34:03;6.70;99.90
30174;DHT22;16985;50.814;8.530;2023-11-21T07:36:29;6.40;99.90
30174;DHT22;16985;50.814;8.530;2023-11-21T07:38:55;6.70;99.90
30174;DHT22;16985;50.814;8.530;2023-11-21T07:41:21;6.80;99.90
30174;DHT22;16985;50.814;8.530;2023-11-21T07:43:47;6.70;99.90
30174;DHT22;16985;50.814;8.530;2023-11-21T07:46:14;6.80;99.90
30174;DHT22;16985;50.814;8.530;2023-11-21T07:48:41;7.50;99.90
30174;DHT22;16985;50.814;8.530;2023-11-21T07:51:08;6.80;99.90
30174;DHT22;16985;50.814;8.530;2023-11-21T07:53:35;6.80;99.90
30174;DHT22;16985;50.814;8.530;2023-11-21T07:56:06;6.80;99.90
30174;DHT22;16985;50.814;8.530;2023-11-21T07:58:34;6.80;99.90
30174;DHT22;16985;50.814;8.530;2023-11-21T08:01:04;6.80;99.90
30174;DHT22;16985;50.814;8.530;2023-11-21T08:03:30;6.80;99.90
30174;DHT22;16985;50.814;8.530;2023-11-21T08:05:57;6.80;99.90
30174;DHT22;16985;50.814;8.530;2023-11-21T08:08:24;6.80;99.90
30174;DHT22;16985;50.814;8.530;2023-11-21T08:10:50;6.80;99.90
30174;DHT22;16985;50.814;8.530;2023-11-21T08:13:27;6.80;99.90
30174;DHT22;16985;50.814;8.530;2023-11-21T08:15:58;7.00;99.90
30174;DHT22;16985;50.814;8.530;2023-11-21T08:18:28;6.80;99.90
30174;DHT22;16985;50.814;8.530;2023-11-21T08:20:55;6.90;99.90
30174;DHT22;16985;50.814;8.530;2023-11-21T08:23:22;6.90;99.90
30174;DHT22;16985;50.814;8.530;2023-11-21T08:25:52;6.90;99.90
30174;DHT22;16985;50.814;8.530;2023-11-21T08:28:22;6.90;99.90
30174;DHT22;16985;50.814;8.530;2023-11-21T08:30:54;6.90;99.90
30174;DHT22;16985;50.814;8.530;2023-11-21T08:33:20;7.10;99.90
30174;DHT22;16985;50.814;8.530;2023-11-21T08:35:46;7.00;99.90
30174;DHT22;16985;50.814;8.530;2023-11-21T08:38:12;7.00;99.90
30174;DHT22;16985;50.814;8.530;2023-11-21T08:40:38;7.00;99.90
30174;DHT22;16985;50.814;8.530;2023-11-21T08:43:04;7.10;99.90
30174;DHT22;16985;50.814;8.530;2023-11-21T08:45:31;7.00;99.90
30174;DHT22;16985;50.814;8.530;2023-11-21T08:48:00;7.10;99.90
30174;DHT22;16985;50.814;8.530;2023-11-21T08:50:26;7.10;99.90
30174;DHT22;16985;50.814;8.530;2023-11-21T08:52:52;7.10;99.90
30174;DHT22;16985;50.814;8.530;2023-11-21T08:55:18;7.10;99.90
30174;DHT22;16985;50.814;8.530;2023-11-21T08:57:45;7.20;99.90
30174;DHT22;16985;50.814;8.530;2023-11-21T09:00:12;7.20;99.90
30174;DHT22;16985;50.814;8.530;2023-11-21T09:02:43;7.20;99.90
30174;DHT22;16985;50.814;8.530;2023-11-21T09:05:10;7.20;99.90
30174;DHT22;16985;50.814;8.530;2023-11-21T09:07:39;7.20;99.90
30174;DHT22;16985;50.814;8.530;2023-11-21T09:10:07;7.30;99.90
30174;DHT22;16985;50.814;8.530;2023-11-21T09:12:38;7.30;99.90
30174;DHT22;16985;50.814;8.530;2023-11-21T09:15:05;7.30;99.90
30174;DHT22;16985;50.814;8.530;2023-11-21T09:17:33;7.40;99.90
30174;DHT22;16985;50.814;8.530;2023-11-21T09:20:00;7.40;99.90
30174;DHT22;16985;50.814;8.530;2023-11-21T09:22:26;8.90;99.90
30174;DHT22;16985;50.814;8.530;2023-11-21T09:24:52;7.50;99.90
30174;DHT22;16985;50.814;8.530;2023-11-21T09:27:19;7.60;99.90
30174;DHT22;16985;50.814;8.530;2023-11-21T09:29:47;7.60;99.90
30174;DHT22;16985;50.814;8.530;2023-11-21T09:32:14;7.60;99.90
30174;DHT22;16985;50.814;8.530;2023-11-21T09:34:41;7.60;99.90
30174;DHT22;16985;50.814;8.530;2023-11-21T09:37:08;7.70;99.90
30174;DHT22;16985;50.814;8.530;2023-11-21T09:39:35;7.80;99.90
30174;DHT22;16985;50.814;8.530;2023-11-21T09:42:14;7.90;99.90
30174;DHT22;16985;50.814;8.530;2023-11-21T09:44:48;8.00;99.90
30174;DHT22;16985;50.814;8.530;2023-11-21T09:47:22;8.00;99.90
30174;DHT22;16985;50.814;8.530;2023-11-21T09:49:49;8.10;99.90
30174;DHT22;16985;50.814;8.530;2023-11-21T09:52:24;8.20;99.90
30174;DHT22;16985;50.814;8.530;2023-11-21T09:54:55;8.20;99.90
30174;DHT22;16985;50.814;8.530;2023-11-21T09:57:25;8.30;99.90
30174;DHT22;16985;50.814;8.530;2023-11-21T09:59:52;9.50;99.90
30174;DHT22;16985;50.814;8.530;2023-11-21T10:02:26;8.30;99.90
30174;DHT22;16985;50.814;8.530;2023-11-21T10:04:59;8.40;99.90
30174;DHT22;16985;50.814;8.530;2023-11-21T10:07:26;8.40;99.90
30174;DHT22;16985;50.814;8.530;2023-11-21T10:09:53;8.50;99.90
30174;DHT22;16985;50.814;8.530;2023-11-21T10:12:19;8.50;99.90
30174;DHT22;16985;50.814;8.530;2023-11-21T10:14:48;8.60;99.90
30174;DHT22;16985;50.814;8.530;2023-11-21T10:17:15;8.60;99.90
30174;DHT22;16985;50.814;8.530;2023-11-21T10:19:46;7.70;99.90
30174;DHT22;16985;50.814;8.530;2023-11-21T10:22:16;8.60;99.90
30174;DHT22;16985;50.814;8.530;2023-11-21T10:24:43;8.60;99.90
30174;DHT22;16985;50.814;8.530;2023-11-21T10:27:09;8.70;99.90
30174;DHT22;16985;50.814;8.530;2023-11-21T10:29:35;8.70;99.90
30174;DHT22;16985;50.814;8.530;2023-11-21T10:32:04;8.70;99.90
30174;DHT22;16985;50.814;8.530;2023-11-21T10:34:31;8.70;99.90
30174;DHT22;16985;50.814;8.530;2023-11-21T10:36:57;8.70;99.90
30174;DHT22;16985;50.814;8.530;2023-11-21T10:39:24;8.70;99.90
30174;DHT22;16985;50.814;8.530;2023-11-21T10:41:56;8.70;99.90
30174;DHT22;16985;50.814;8.530;2023-11-21T10:44:22;8.80;99.90
30174;DHT22;16985;50.814;8.530;2023-11-21T10:46:55;8.80;99.90
30174;DHT22;16985;50.814;8.530;2023-11-21T10:49:24;8.80;99.90
30174;DHT22;16985;50.814;8.530;2023-11-21T10:51:52;8.80;99.90
30174;DHT22;16985;50.814;8.530;2023-11-21T10:54:23;8.90;99.90
30174;DHT22;16985;50.814;8.530;2023-11-21T10:56:57;8.90;99.90
30174;DHT22;16985;50.814;8.530;2023-11-21T10:59:29;8.80;99.90
30174;DHT22;16985;50.814;8.530;2023-11-21T11:01:58;8.90;99.90
30174;DHT22;16985;50.814;8.530;2023-11-21T11:04:27;8.90;99.90
30174;DHT22;16985;50.814;8.530;2023-11-21T11:07:04;8.90;99.90
30174;DHT22;16985;50.814;8.530;2023-11-21T11:09:31;8.90;99.90
30174;DHT22;16985;50.814;8.530;2023-11-21T11:12:02;8.80;99.90
30174;DHT22;16985;50.814;8.530;2023-11-21T11:14:30;8.90;99.90
30174;DHT22;16985;50.814;8.530;2023-11-21T11:16:58;8.90;99.90
30174;DHT22;16985;50.814;8.530;2023-11-21T11:19:25;8.90;99.90
30174;DHT22;16985;50.814;8.530;2023-11-21T11:38:52;9.00;99.90
30174;DHT22;16985;50.814;8.530;2023-11-21T11:41:26;9.00;99.90
30174;DHT22;16985;50.814;8.530;2023-11-21T11:44:02;9.00;99.90
30174;DHT22;16985;50.814;8.530;2023-11-21T11:46:45;9.00;99.90
30174;DHT22;16985;50.814;8.530;2023-11-21T11:49:29;9.00;99.90
30174;DHT22;16985;50.814;8.530;2023-11-21T11:55:02;9.10;99.90
30174;DHT22;16985;50.814;8.530;2023-11-21T11:57:31;9.00;99.90
30174;DHT22;16985;50.814;8.530;2023-11-21T12:00:17;9.00;99.90
30174;DHT22;16985;50.814;8.530;2023-11-21T12:03:01;9.00;99.90
30174;DHT22;16985;50.814;8.530;2023-11-21T12:05:32;9.00;99.90
30174;DHT22;16985;50.814;8.530;2023-11-21T12:08:02;9.10;99.90
30174;DHT22;16985;50.814;8.530;2023-11-21T12:10:33;9.10;99.90
30174;DHT22;16985;50.814;8.530;2023-11-21T12:13:08;9.10;99.90
30174;DHT22;16985;50.814;8.530;2023-11-21T12:15:36;9.10;99.90
30174;DHT22;16985;50.814;8.530;2023-11-21T12:18:03;9.10;99.90
30174;DHT22;16985;50.814;8.530;2023-11-21T12:20:29;9.10;99.90
30174;DHT22;16985;50.814;8.530;2023-11-21T12:23:00;9.10;99.90
30174;DHT22;16985;50.814;8.530;2023-11-21T12:25:27;9.10;99.90
30174;DHT22;16985;50.814;8.530;2023-11-21T12:27:55;9.00;99.90
30174;DHT22;16985;50.814;8.530;2023-11-21T12:30:25;9.00;99.90
30174;DHT22;16985;50.814;8.530;2023-11-21T12:32:55;9.00;99.90
30174;DHT22;16985;50.814;8.530;2023-11-21T12:35:26;9.00;99.90
30174;DHT22;16985;50.814;8.530;2023-11-21T12:37:54;9.00;99.90
30174;DHT22;16985;50.814;8.530;2023-11-21T12:40:23;9.00;99.90
30174;DHT22;16985;50.814;8.530;2023-11-21T12:42:52;9.10;99.90
30174;DHT22;16985;50.814;8.530;2023-11-21T12:45:21;9.00;99.90
30174;DHT22;16985;50.814;8.530;2023-11-21T12:47:49;9.00;99.90
30174;DHT22;16985;50.814;8.530;2023-11-21T12:50:23;9.00;99.90
30174;DHT22;16985;50.814;8.530;2023-11-21T12:52:52;9.00;99.90
30174;DHT22;16985;50.814;8.530;2023-11-21T12:55:22;9.00;99.90
30174;DHT22;16985;50.814;8.530;2023-11-21T12:57:50;9.00;99.90
30174;DHT22;16985;50.814;8.530;2023-11-21T13:00:18;9.00;99.90
30174;DHT22;16985;50.814;8.530;2023-11-21T13:02:55;9.00;99.90
30174;DHT22;16985;50.814;8.530;2023-11-21T13:05:33;9.00;99.90
30174;DHT22;16985;50.814;8.530;2023-11-21T13:08:02;8.60;99.90
30174;DHT22;16985;50.814;8.530;2023-11-21T13:10:31;9.00;99.90
30174;DHT22;16985;50.814;8.530;2023-11-21T13:12:58;9.00;99.90
30174;DHT22;16985;50.814;8.530;2023-11-21T13:15:26;8.90;99.90
30174;DHT22;16985;50.814;8.530;2023-11-21T13:17:53;9.00;99.90
30174;DHT22;16985;50.814;8.530;2023-11-21T13:20:20;9.00;99.90
30174;DHT22;16985;50.814;8.530;2023-11-21T13:25:17;9.00;99.90
30174;DHT22;16985;50.814;8.530;2023-11-21T13:27:46;9.00;99.90
30174;DHT22;16985;50.814;8.530;2023-11-21T13:30:13;9.00;99.90
30174;DHT22;16985;50.814;8.530;2023-11-21T13:32:44;8.30;99.90
30174;DHT22;16985;50.814;8.530;2023-11-21T13:35:12;9.00;99.90
30174;DHT22;16985;50.814;8.530;2023-11-21T13:37:50;9.00;99.90
30174;DHT22;16985;50.814;8.530;2023-11-21T13:40:22;9.00;99.90
30174;DHT22;16985;50.814;8.530;2023-11-21T13:42:55;8.90;99.90
30174;DHT22;16985;50.814;8.530;2023-11-21T13:45:25;8.90;99.90
30174;DHT22;16985;50.814;8.530;2023-11-21T13:47:53;8.90;99.90
30174;DHT22;16985;50.814;8.530;2023-11-21T13:50:24;9.00;99.90
30174;DHT22;16985;50.814;8.530;2023-11-21T13:52:58;9.00;99.90
30174;DHT22;16985;50.814;8.530;2023-11-21T13:55:29;9.00;99.90
30174;DHT22;16985;50.814;8.530;2023-11-21T13:57:55;9.00;99.90
30174;DHT22;16985;50.814;8.530;2023-11-21T14:00:21;9.00;99.90
30174;DHT22;16985;50.814;8.530;2023-11-21T14:03:07;9.00;99.90
30174;DHT22;16985;50.814;8.530;2023-11-21T14:05:43;9.50;99.90
30174;DHT22;16985;50.814;8.530;2023-11-21T14:08:11;9.00;99.90
30174;DHT22;16985;50.814;8.530;2023-11-21T14:10:42;9.00;99.90
30174;DHT22;16985;50.814;8.530;2023-11-21T14:13:09;7.50;99.90
30174;DHT22;16985;50.814;8.530;2023-11-21T14:15:41;9.00;99.90
30174;DHT22;16985;50.814;8.530;2023-11-21T14:18:12;9.00;99.90
30174;DHT22;16985;50.814;8.530;2023-11-21T14:20:43;9.00;99.90
30174;DHT22;16985;50.814;8.530;2023-11-21T14:23:10;9.10;99.90
30174;DHT22;16985;50.814;8.530;2023-11-21T14:25:37;9.00;99.90
30174;DHT22;16985;50.814;8.530;2023-11-21T14:28:05;9.00;99.90
30174;DHT22;16985;50.814;8.530;2023-11-21T14:30:32;9.10;99.90
30174;DHT22;16985;50.814;8.530;2023-11-21T14:33:02;9.10;99.90
30174;DHT22;16985;50.814;8.530;2023-11-21T14:35:28;9.10;99.90
30174;DHT22;16985;50.814;8.530;2023-11-21T14:37:58;9.10;99.90
30174;DHT22;16985;50.814;8.530;2023-11-21T14:40:26;9.10;99.90
30174;DHT22;16985;50.814;8.530;2023-11-21T14:42:57;9.10;99.90
30174;DHT22;16985;50.814;8.530;2023-11-21T14:45:23;9.10;99.90
30174;DHT22;16985;50.814;8.530;2023-11-21T14:47:51;9.10;99.90
30174;DHT22;16985;50.814;8.530;2023-11-21T14:50:34;9.10;99.90
30174;DHT22;16985;50.814;8.530;2023-11-21T14:53:12;9.10;99.90
30174;DHT22;16985;50.814;8.530;2023-11-21T14:55:39;9.10;99.90
30174;DHT22;16985;50.814;8.530;2023-11-21T14:58:18;9.10;99.90
30174;DHT22;16985;50.814;8.530;2023-11-21T15:00:55;9.20;99.90
30174;DHT22;16985;50.814;8.530;2023-11-21T15:03:25;9.00;99.90
30174;DHT22;16985;50.814;8.530;2023-11-21T15:05:58;9.00;99.90
30174;DHT22;16985;50.814;8.530;2023-11-21T15:08:25;9.00;99.90
30174;DHT22;16985;50.814;8.530;2023-11-21T15:10:58;9.00;99.90
30174;DHT22;16985;50.814;8.530;2023-11-21T15:13:24;9.00;99.90
30174;DHT22;16985;50.814;8.530;2023-11-21T15:15:53;8.90;99.90
30174;DHT22;16985;50.814;8.530;2023-11-21T15:18:20;9.00;99.90
30174;DHT22;16985;50.814;8.530;2023-11-21T15:20:46;8.90;99.90
30174;DHT22;16985;50.814;8.530;2023-11-21T15:23:12;8.90;99.90
30174;DHT22;16985;50.814;8.530;2023-11-21T15:25:39;8.90;99.90
30174;DHT22;16985;50.814;8.530;2023-11-21T15:28:05;8.90;99.90
30174;DHT22;16985;50.814;8.530;2023-11-21T15:30:31;8.90;99.90
30174;DHT22;16985;50.814;8.530;2023-11-21T15:32:59;8.30;99.90
30174;DHT22;16985;50.814;8.530;2023-11-21T15:35:25;8.80;99.90
30174;DHT22;16985;50.814;8.530;2023-11-21T15:37:53;8.80;99.90
30174;DHT22;16985;50.814;8.530;2023-11-21T15:40:23;8.80;99.90
30174;DHT22;16985;50.814;8.530;2023-11-21T15:42:49;8.80;99.90
30174;DHT22;16985;50.814;8.530;2023-11-21T15:45:15;8.80;99.90
30174;DHT22;16985;50.814;8.530;2023-11-21T15:47:44;8.80;99.90
30174;DHT22;16985;50.814;8.530;2023-11-21T15:50:10;8.80;99.90
30174;DHT22;16985;50.814;8.530;2023-11-21T15:52:37;8.70;99.90
30174;DHT22;16985;50.814;8.530;2023-11-21T15:55:03;8.80;99.90
30174;DHT22;16985;50.814;8.530;2023-11-21T15:57:29;8.80;99.90
30174;DHT22;16985;50.814;8.530;2023-11-21T15:59:55;8.50;99.90
30174;DHT22;16985;50.814;8.530;2023-11-21T16:02:21;8.70;99.90
30174;DHT22;16985;50.814;8.530;2023-11-21T16:04:47;8.70;99.90
30174;DHT22;16985;50.814;8.530;2023-11-21T16:07:13;8.70;99.90
30174;DHT22;16985;50.814;8.530;2023-11-21T16:09:39;8.70;99.90
30174;DHT22;16985;50.814;8.530;2023-11-21T16:12:08;8.70;99.90